createdAt,value
2022-09-13T00:02:24.041Z,9.20
2022-09-13T00:07:27.007Z,10.07
2022-09-13T00:12:30.592Z,9.73
2022-09-13T00:17:33.548Z,9.23
2022-09-13T00:22:37.525Z,9.43
2022-09-13T00:27:40.626Z,9.67
2022-09-13T00:32:43.563Z,9.57
2022-09-13T00:37:46.715Z,9.63
2022-09-13T00:42:49.686Z,10.27
2022-09-13T00:48:00.652Z,10.10
2022-09-13T00:53:09.427Z,10.40
2022-09-13T00:58:22.761Z,10.07
2022-09-13T01:03:29.090Z,9.73
2022-09-13T01:08:34.745Z,10.00
2022-09-13T01:13:38.827Z,10.40
2022-09-13T01:18:41.686Z,10.60
2022-09-13T01:24:28.364Z,10.40
2022-09-13T01:30:02.020Z,10.67
2022-09-13T01:35:41.975Z,10.30
2022-09-13T01:41:04.928Z,11.30
2022-09-13T01:46:26.760Z,9.70
2022-09-13T01:51:39.712Z,9.90
2022-09-13T01:57:04.351Z,9.70
2022-09-13T02:02:21.830Z,9.30
2022-09-13T02:07:34.978Z,8.73
2022-09-13T02:12:40.932Z,8.73
2022-09-13T02:18:06.686Z,9.03
2022-09-13T02:23:24.334Z,8.40
2022-09-13T02:28:39.602Z,8.80
2022-09-13T02:33:57.335Z,8.30
2022-09-13T02:39:18.185Z,8.27
2022-09-13T02:44:34.435Z,8.70
2022-09-13T02:50:02.563Z,8.90
2022-09-13T02:55:14.591Z,8.60
2022-09-13T03:00:17.840Z,9.17
2022-09-13T03:05:20.844Z,8.90
2022-09-13T03:10:24.769Z,8.67
2022-09-13T03:15:51.039Z,9.07
2022-09-13T03:21:02.345Z,8.47
2022-09-13T03:26:21.424Z,8.70
2022-09-13T03:31:48.461Z,9.00
2022-09-13T03:37:11.845Z,8.13
2022-09-13T03:42:25.203Z,8.27
2022-09-13T03:47:32.796Z,8.20
2022-09-13T03:52:37.034Z,8.23
2022-09-13T03:57:39.925Z,8.03
2022-09-13T04:02:42.938Z,7.60
2022-09-13T04:07:45.851Z,7.40
2022-09-13T04:12:49.602Z,7.60
2022-09-13T04:17:52.607Z,7.57
2022-09-13T04:22:57.706Z,7.87
2022-09-13T04:28:01.101Z,8.10
2022-09-13T04:33:04.189Z,8.53
2022-09-13T04:38:07.459Z,8.17
2022-09-13T04:43:10.333Z,8.53
2022-09-13T04:48:13.284Z,9.73
2022-09-13T04:53:16.302Z,9.07
2022-09-13T04:58:19.162Z,9.20
2022-09-13T05:03:22.194Z,9.33
2022-09-13T05:08:25.105Z,10.37
2022-09-13T05:13:28.212Z,10.23
2022-09-13T05:18:32.927Z,10.30
2022-09-13T05:23:35.947Z,10.53
2022-09-13T05:28:38.936Z,11.23
2022-09-13T05:33:41.957Z,11.17
2022-09-13T05:38:44.921Z,10.07
2022-09-13T05:43:47.881Z,11.23
2022-09-13T05:48:51.235Z,10.20
2022-09-13T05:53:56.120Z,9.43
2022-09-13T05:58:59.499Z,9.10
2022-09-13T06:04:02.748Z,9.83
2022-09-13T06:09:08.591Z,9.30
2022-09-13T06:14:11.645Z,8.30
2022-09-13T06:19:14.602Z,7.63
2022-09-13T06:24:17.507Z,7.47
2022-09-13T06:29:20.517Z,7.97
2022-09-13T06:34:25.934Z,7.43
2022-09-13T06:39:32.391Z,7.30
2022-09-13T06:44:35.355Z,7.33
2022-09-13T06:49:38.413Z,6.90
2022-09-13T06:54:41.405Z,6.93
2022-09-13T06:59:44.905Z,6.30
2022-09-13T07:04:47.872Z,7.30
2022-09-13T07:09:50.798Z,6.80
2022-09-13T07:14:53.925Z,6.40
2022-09-13T07:19:56.881Z,6.30
2022-09-13T07:25:02.615Z,7.00
2022-09-13T07:30:06.096Z,6.30
2022-09-13T07:35:09.153Z,5.87
2022-09-13T07:40:12.795Z,6.20
2022-09-13T07:45:15.725Z,6.07
2022-09-13T07:50:18.646Z,6.30
2022-09-13T07:55:21.567Z,5.83
2022-09-13T08:00:25.325Z,6.70
2022-09-13T08:05:28.192Z,6.10
2022-09-13T08:10:31.036Z,6.57
2022-09-13T08:15:34.785Z,6.57
2022-09-13T08:20:41.035Z,6.50
2022-09-13T08:25:43.925Z,6.63
2022-09-13T08:30:46.902Z,6.07
2022-09-13T08:35:53.562Z,6.30
2022-09-13T08:41:16.408Z,6.67
2022-09-13T08:46:27.847Z,6.47
2022-09-13T08:51:42.647Z,6.87
2022-09-13T08:57:17.921Z,6.73
2022-09-13T09:02:46.815Z,6.67
2022-09-13T09:08:10.749Z,6.63
2022-09-13T09:13:26.975Z,7.27
2022-09-13T09:18:45.929Z,6.30
2022-09-13T09:23:52.679Z,5.20
2022-09-13T09:29:24.701Z,5.27
2022-09-13T09:34:28.057Z,4.57
2022-09-13T09:39:39.380Z,5.50
2022-09-13T09:44:46.981Z,4.73
2022-09-13T09:50:11.214Z,4.27
2022-09-13T09:55:23.415Z,4.77
2022-09-13T10:00:33.295Z,3.93
2022-09-13T10:05:36.770Z,3.60
2022-09-13T10:10:43.748Z,3.97
2022-09-13T10:15:54.290Z,3.90
2022-09-13T10:21:19.162Z,3.67
2022-09-13T10:26:24.616Z,3.77
2022-09-13T10:31:35.614Z,3.60
2022-09-13T10:36:52.994Z,3.43
2022-09-13T10:42:08.044Z,3.97
2022-09-13T10:47:43.040Z,3.57
2022-09-13T10:52:48.756Z,4.07
2022-09-13T10:57:55.419Z,4.30
2022-09-13T11:03:35.795Z,4.03
2022-09-13T11:09:05.651Z,3.60
2022-09-13T11:14:19.126Z,3.90
2022-09-13T11:19:38.063Z,3.77
2022-09-13T11:25:19.984Z,3.50
2022-09-13T11:30:30.121Z,3.17
2022-09-13T11:35:54.364Z,2.90
2022-09-13T11:41:22.994Z,2.70
2022-09-13T11:46:35.013Z,2.50
2022-09-13T11:51:59.707Z,2.50
2022-09-13T11:57:13.186Z,2.20
2022-09-13T12:02:54.447Z,1.90
2022-09-13T12:08:13.480Z,2.03
2022-09-13T12:13:39.678Z,2.40
2022-09-13T12:18:50.051Z,2.40
2022-09-13T12:24:11.673Z,2.37
2022-09-13T12:29:51.927Z,2.60
2022-09-13T12:35:16.355Z,2.40
2022-09-13T12:40:44.081Z,2.53
2022-09-13T12:46:09.312Z,2.80
2022-09-13T12:51:50.412Z,3.03
2022-09-13T12:57:02.211Z,3.00
2022-09-13T13:02:27.640Z,2.87
2022-09-13T13:07:34.200Z,2.90
2022-09-13T13:12:39.180Z,2.80
2022-09-13T13:17:48.180Z,3.10
2022-09-13T13:22:52.220Z,2.67
2022-09-13T13:27:55.860Z,2.90
2022-09-13T13:33:29.518Z,2.77
2022-09-13T13:38:53.887Z,2.90
2022-09-13T13:43:56.774Z,3.10
2022-09-13T13:49:30.578Z,2.57
2022-09-13T13:54:59.630Z,2.50
2022-09-13T14:00:09.060Z,2.30
2022-09-13T14:05:27.724Z,2.50
2022-09-13T14:10:58.201Z,2.50
2022-09-13T14:16:08.583Z,2.33
2022-09-13T14:21:30.365Z,2.40
2022-09-13T14:26:33.429Z,2.40
2022-09-13T14:31:37.296Z,2.20
2022-09-13T14:36:50.902Z,2.30
2022-09-13T14:42:12.923Z,2.30
2022-09-13T14:47:31.342Z,2.50
2022-09-13T14:52:47.285Z,2.27
2022-09-13T14:57:55.418Z,2.40
2022-09-13T15:03:05.584Z,2.50
2022-09-13T15:08:35.348Z,2.50
2022-09-13T15:13:42.847Z,2.50
2022-09-13T15:18:45.767Z,2.70
2022-09-13T15:23:52.243Z,2.40
2022-09-13T15:28:58.259Z,2.60
2022-09-13T15:34:14.398Z,2.60
2022-09-13T15:39:20.350Z,2.80
2022-09-13T15:44:24.207Z,2.80
2022-09-13T15:49:28.655Z,2.60
2022-09-13T15:54:39.071Z,2.70
2022-09-13T15:59:42.121Z,2.30
2022-09-13T16:04:45.071Z,2.70
2022-09-13T16:09:49.830Z,3.03
2022-09-13T16:14:54.386Z,2.73
2022-09-13T16:19:57.343Z,2.80
2022-09-13T16:25:00.237Z,2.87
2022-09-13T16:30:03.204Z,2.90
2022-09-13T16:35:06.507Z,3.03
2022-09-13T16:40:10.412Z,3.00
2022-09-13T16:45:16.494Z,2.77
2022-09-13T16:50:20.012Z,2.80
2022-09-13T16:55:24.361Z,2.70
2022-09-13T17:00:28.879Z,3.00
2022-09-13T17:05:31.821Z,2.83
2022-09-13T17:10:37.624Z,2.70
2022-09-13T17:15:40.773Z,2.67
2022-09-13T17:20:49.436Z,2.80
2022-09-13T17:25:52.659Z,2.87
2022-09-13T17:30:58.416Z,3.37
2022-09-13T17:36:07.589Z,3.07
2022-09-13T17:41:19.213Z,3.27
2022-09-13T17:46:29.212Z,3.40
2022-09-13T17:51:33.382Z,3.43
2022-09-13T17:56:42.275Z,3.40
2022-09-13T18:01:51.029Z,3.70
2022-09-13T18:06:54.960Z,4.00
2022-09-13T18:11:57.919Z,4.90
2022-09-13T18:17:01.315Z,3.83
2022-09-13T18:22:04.188Z,4.47
2022-09-13T18:27:07.269Z,4.77
2022-09-13T18:32:10.095Z,4.30
2022-09-13T18:37:13.244Z,4.37
2022-09-13T18:42:17.968Z,4.17
2022-09-13T18:47:20.829Z,4.40
2022-09-13T18:52:23.721Z,4.60
2022-09-13T18:57:27.893Z,5.27
2022-09-13T19:02:31.405Z,5.27
2022-09-13T19:07:34.622Z,6.27
2022-09-13T19:12:37.530Z,6.67
2022-09-13T19:17:40.424Z,6.43
2022-09-13T19:22:45.743Z,10.00
2022-09-13T19:27:48.978Z,8.90
2022-09-13T19:32:51.865Z,6.20
2022-09-13T19:37:54.730Z,5.43
2022-09-13T19:42:58.045Z,5.60
2022-09-13T19:53:40.870Z,5.80
2022-09-13T19:58:47.092Z,5.10
2022-09-13T20:03:55.675Z,5.80
2022-09-13T20:09:00.803Z,5.73
2022-09-13T20:14:05.197Z,6.10
2022-09-13T20:19:29.639Z,6.37
2022-09-13T20:24:32.540Z,5.50
2022-09-13T20:29:35.470Z,5.80
2022-09-13T20:34:38.843Z,5.67
2022-09-13T20:39:41.886Z,6.03
2022-09-13T20:44:46.106Z,5.60
2022-09-13T20:49:49.024Z,5.93
2022-09-13T20:54:51.818Z,6.07
2022-09-13T20:59:54.716Z,5.90
2022-09-13T21:04:57.681Z,6.03
2022-09-13T21:10:01.200Z,6.37
2022-09-13T21:15:04.554Z,6.30
2022-09-13T21:20:07.801Z,6.60
2022-09-13T21:25:10.731Z,6.70
2022-09-13T21:30:14.721Z,6.90
2022-09-13T21:35:17.665Z,6.43
2022-09-13T21:40:20.632Z,6.80
2022-09-13T21:45:24.158Z,6.30
2022-09-13T21:50:27.209Z,6.30
2022-09-13T21:55:31.507Z,6.37
2022-09-13T22:00:39.062Z,6.63
2022-09-13T22:12:16.292Z,6.70
2022-09-13T22:17:21.736Z,6.67
2022-09-13T22:22:24.635Z,6.83
2022-09-13T22:27:27.507Z,6.63
2022-09-13T22:32:30.749Z,6.60
2022-09-13T22:37:33.535Z,6.57
2022-09-13T22:42:36.262Z,6.83
2022-09-13T22:47:38.889Z,6.57
2022-09-13T22:52:41.495Z,7.40
2022-09-13T22:57:44.096Z,7.23
2022-09-13T23:02:47.324Z,7.23
2022-09-13T23:07:50.075Z,7.37
2022-09-13T23:12:52.747Z,7.17
2022-09-13T23:17:55.475Z,7.03
2022-09-13T23:22:58.192Z,7.37
2022-09-13T23:28:00.856Z,7.30
2022-09-13T23:33:03.499Z,7.13
2022-09-13T23:38:06.559Z,7.17
2022-09-13T23:43:09.326Z,7.50
2022-09-13T23:48:12.007Z,7.40
2022-09-13T23:53:15.090Z,7.73
2022-09-13T23:58:17.744Z,7.43
